Time;durP1;ratioP1;P1;durP2;ratioP2;P2;SDS_P1;SDS_P2;PMS_P1;PMS_P2;Temp;Humidity;BMP_temperature;BMP_pressure;BME280_temperature;BME280_humidity;BME280_pressure;Samples;Min_cycle;Max_cycle;Signal;HPM_P1;HPM_P2
2023/08/30 00:01:37;;;;;;;3.90;2.63;;;;;;;14.55;100.00;101070.09;4944084;28;20221;-77
2023/08/30 00:04:03;;;;;;;3.67;2.60;;;;;;;14.64;100.00;101076.91;4942585;28;20210;-77
2023/08/30 00:06:28;;;;;;;5.10;2.30;;;;;;;14.80;100.00;101137.63;4945449;28;20193;-77
2023/08/30 00:08:54;;;;;;;4.50;2.70;;;;;;;14.89;100.00;101157.91;4946107;28;20186;-77
2023/08/30 00:11:19;;;;;;;4.53;2.70;;;;;;;14.64;100.00;101085.81;4959207;28;20266;-77
2023/08/30 00:13:44;;;;;;;4.43;2.80;;;;;;;14.30;100.00;101038.50;4943825;28;20195;-77
2023/08/30 00:16:10;;;;;;;5.70;4.07;;;;;;;14.44;100.00;101077.84;4944200;28;20295;-77
2023/08/30 00:18:35;;;;;;;5.97;4.77;;;;;;;14.46;100.00;101062.25;4946147;28;20680;-77
2023/08/30 00:21:01;;;;;;;5.07;4.07;;;;;;;14.33;100.00;101021.88;4944913;28;20207;-77
2023/08/30 00:23:26;;;;;;;5.10;4.47;;;;;;;14.31;100.00;101028.53;4959660;28;20199;-77
2023/08/30 00:25:52;;;;;;;6.37;5.20;;;;;;;14.36;100.00;101075.41;4943220;28;20183;-77
2023/08/30 00:28:17;;;;;;;9.73;5.37;;;;;;;14.79;100.00;101133.28;4960066;28;20195;-77
2023/08/30 00:30:42;;;;;;;6.20;5.30;;;;;;;13.38;100.00;100913.19;4943547;28;20269;-77
2023/08/30 00:33:08;;;;;;;6.63;5.80;;;;;;;14.88;100.00;101140.88;4953116;28;21225;-77
2023/08/30 00:35:33;;;;;;;7.23;5.40;;;;;;;14.68;100.00;101108.63;4943222;28;20332;-77
2023/08/30 00:37:59;;;;;;;6.33;5.57;;;;;;;15.18;100.00;101142.09;4944006;28;20215;-77
2023/08/30 00:40:25;;;;;;;9.63;5.70;;;;;;;13.74;100.00;100948.41;4945289;28;20215;-77
2023/08/30 00:42:51;;;;;;;9.20;6.70;;;;;;;14.54;100.00;101092.75;4961698;28;20255;-77
2023/08/30 00:45:16;;;;;;;8.07;6.73;;;;;;;12.32;100.00;100745.66;4945560;28;20428;-77
2023/08/30 00:47:42;;;;;;;7.33;6.10;;;;;;;12.77;100.00;100787.94;4945239;28;20510;-77
2023/08/30 00:50:09;;;;;;;8.70;7.40;;;;;;;14.07;100.00;101020.19;4951633;28;20222;-77
2023/08/30 00:52:35;;;;;;;7.80;6.50;;;;;;;13.02;100.00;100802.28;4958782;28;20231;-77
2023/08/30 00:55:00;;;;;;;7.17;6.43;;;;;;;12.23;100.00;100682.41;4944072;28;20467;-77
2023/08/30 00:57:26;;;;;;;7.30;6.60;;;;;;;13.55;100.00;100928.63;4945820;28;20598;-77
2023/08/30 00:59:53;;;;;;;6.77;6.07;;;;;;;11.87;100.00;100619.28;4941482;23;20228;-75
2023/08/30 01:02:18;;;;;;;7.93;6.40;;;;;;;12.39;100.00;100718.75;4931663;29;20191;-75
2023/08/30 01:04:45;;;;;;;6.80;5.53;;;;;;;13.48;100.00;100871.25;4925561;29;20783;-76
2023/08/30 01:07:11;;;;;;;7.63;6.83;;;;;;;12.36;100.00;100697.69;4931471;29;20187;-75
2023/08/30 01:09:36;;;;;;;8.23;6.53;;;;;;;15.22;100.00;101146.00;4924694;29;20443;-77
2023/08/30 01:12:22;;;;;;;9.50;7.10;;;;;;;12.63;100.00;100782.59;4937401;28;20199;-76
2023/08/30 01:15:02;;;;;;;7.97;6.47;;;;;;;13.08;100.00;100870.63;4921711;29;20315;-76
2023/08/30 01:17:30;;;;;;;8.73;6.70;;;;;;;14.35;100.00;101016.25;4923277;29;20461;-76
2023/08/30 01:20:17;;;;;;;9.23;6.90;;;;;;;13.73;100.00;100935.97;4931557;29;20463;-77
2023/08/30 01:23:10;;;;;;;10.00;8.67;;;;;;;14.77;100.00;101140.75;4925519;29;20455;-76
2023/08/30 01:26:08;;;;;;;8.33;7.50;;;;;;;14.12;100.00;101060.81;4924567;28;20518;-76
2023/08/30 01:28:35;;;;;;;11.37;9.10;;;;;;;14.50;100.00;101123.91;4925509;29;20428;-76
2023/08/30 01:31:02;;;;;;;9.67;8.67;;;;;;;14.67;100.00;101141.25;4927883;29;21090;-77
2023/08/30 01:33:29;;;;;;;9.30;8.40;;;;;;;14.71;100.00;101134.34;4924726;29;20881;-76
2023/08/30 01:35:59;;;;;;;11.50;9.27;;;;;;;13.64;100.00;100979.56;4926015;29;20527;-77
2023/08/30 01:38:27;;;;;;;9.60;8.60;;;;;;;14.31;100.00;101083.31;4925228;29;20425;-75
2023/08/30 01:40:54;;;;;;;11.67;9.20;;;;;;;14.45;100.00;101117.25;4930926;29;20452;-76
2023/08/30 01:43:21;;;;;;;12.07;10.93;;;;;;;13.81;100.00;101042.72;4925843;29;20436;-76
2023/08/30 01:45:47;;;;;;;11.50;9.03;;;;;;;14.54;100.00;101158.34;4923240;29;20510;-76
2023/08/30 01:48:17;;;;;;;10.67;9.57;;;;;;;13.88;100.00;101045.38;4930042;29;20543;-76
2023/08/30 01:50:44;;;;;;;11.63;10.27;;;;;;;14.09;100.00;101109.81;4923789;29;20212;-76
2023/08/30 01:53:12;;;;;;;11.73;10.33;;;;;;;14.42;100.00;101155.47;4925587;29;20428;-76
2023/08/30 01:55:38;;;;;;;11.77;10.57;;;;;;;14.39;100.00;101173.97;4925583;29;20541;-76
2023/08/30 01:58:05;;;;;;;12.43;11.13;;;;;;;14.38;100.00;101175.03;4923955;29;21026;-76
2023/08/30 02:00:30;;;;;;;13.07;11.57;;;;;;;14.36;100.00;101169.03;4922267;29;20241;-76
2023/08/30 02:02:56;;;;;;;12.00;10.80;;;;;;;14.34;100.00;101184.59;4923412;29;20444;-76
2023/08/30 02:05:22;;;;;;;14.37;12.97;;;;;;;14.00;100.00;101149.69;4924370;29;20224;-76
2023/08/30 02:07:57;;;;;;;13.57;11.93;;;;;;;13.89;100.00;101111.78;4922720;29;20463;-76
2023/08/30 02:10:27;;;;;;;12.10;10.90;;;;;;;13.88;100.00;101096.63;4923231;29;20211;-76
2023/08/30 02:12:55;;;;;;;12.40;11.20;;;;;;;14.30;100.00;101180.69;4921457;29;20559;-76
2023/08/30 02:15:24;;;;;;;12.47;11.17;;;;;;;14.21;100.00;101188.19;4924542;29;20491;-76
2023/08/30 02:17:50;;;;;;;13.20;11.70;;;;;;;13.84;100.00;101119.66;4928911;29;20475;-75
2023/08/30 02:20:16;;;;;;;13.63;12.23;;;;;;;14.40;100.00;101224.22;4921613;29;20508;-75
2023/08/30 02:22:41;;;;;;;13.57;12.17;;;;;;;14.38;100.00;101227.13;4923936;29;20527;-76
2023/08/30 02:25:07;;;;;;;13.53;12.13;;;;;;;14.09;100.00;101187.19;4923817;29;20740;-75
2023/08/30 02:27:34;;;;;;;13.73;12.40;;;;;;;14.38;100.00;101242.50;4923383;29;20208;-75
2023/08/30 02:30:00;;;;;;;14.43;12.90;;;;;;;13.28;100.00;101092.25;4930497;29;20480;-76
2023/08/30 02:32:25;;;;;;;13.73;12.17;;;;;;;13.95;100.00;101199.91;4922420;29;21461;-75
2023/08/30 02:34:52;;;;;;;15.33;11.83;;;;;;;14.12;100.00;101217.28;4923304;29;20196;-76
2023/08/30 02:37:18;;;;;;;12.33;11.07;;;;;;;14.23;100.00;101240.03;4924372;29;20220;-75
2023/08/30 02:39:44;;;;;;;13.90;11.40;;;;;;;13.57;100.00;101155.63;4923266;29;20467;-75
2023/08/30 02:42:09;;;;;;;13.97;11.53;;;;;;;14.14;100.00;101258.34;4924043;29;20945;-75
2023/08/30 02:44:35;;;;;;;11.90;10.70;;;;;;;14.17;100.00;101254.38;4927678;29;20184;-75
2023/08/30 02:47:00;;;;;;;11.87;10.67;;;;;;;13.90;100.00;101213.19;4923383;29;20552;-75
2023/08/30 02:49:25;;;;;;;11.40;10.13;;;;;;;12.86;100.00;101082.75;4923904;29;20195;-76
2023/08/30 02:51:51;;;;;;;11.17;9.57;;;;;;;13.38;100.00;101151.09;4921140;29;20310;-75
2023/08/30 02:54:16;;;;;;;12.30;10.27;;;;;;;13.65;100.00;101162.63;4924866;29;20325;-75
2023/08/30 02:56:45;;;;;;;10.50;9.20;;;;;;;13.13;100.00;101115.84;4925263;29;20208;-75
2023/08/30 02:59:11;;;;;;;12.10;10.00;;;;;;;13.68;100.00;101186.50;4922368;28;20199;-75
2023/08/30 03:01:38;;;;;;;12.03;10.07;;;;;;;14.01;100.00;101244.91;4929319;29;20468;-75
2023/08/30 03:04:07;;;;;;;13.40;10.80;;;;;;;14.05;100.00;101235.34;4929168;29;20436;-76
2023/08/30 03:06:34;;;;;;;11.50;10.30;;;;;;;13.98;100.00;101239.94;4923411;29;20793;-76
2023/08/30 03:08:59;;;;;;;13.10;10.90;;;;;;;13.82;100.00;101211.53;4923391;29;20511;-75
2023/08/30 03:11:25;;;;;;;13.43;10.40;;;;;;;13.61;100.00;101188.38;4920822;29;20607;-75
2023/08/30 03:13:50;;;;;;;11.77;10.13;;;;;;;13.87;100.00;101222.53;4919066;29;20192;-75
2023/08/30 03:16:17;;;;;;;12.20;10.13;;;;;;;13.58;100.00;101180.69;4923263;29;20210;-75
2023/08/30 03:18:43;;;;;;;12.10;10.00;;;;;;;13.72;100.00;101212.00;4922327;29;20204;-75
2023/08/30 03:21:09;;;;;;;11.93;10.70;;;;;;;13.33;100.00;101169.75;4922472;29;20824;-76
2023/08/30 03:23:35;;;;;;;11.77;10.07;;;;;;;13.74;100.00;101230.63;4922675;29;20436;-75
2023/08/30 03:26:15;;;;;;;14.03;10.57;;;;;;;13.54;100.00;101185.69;4922317;29;20195;-76
2023/08/30 03:28:42;;;;;;;11.07;9.97;;;;;;;13.74;100.00;101222.53;4918741;29;20983;-75
2023/08/30 03:31:21;;;;;;;14.20;10.97;;;;;;;13.44;100.00;101206.00;4920246;29;20466;-76
2023/08/30 03:33:49;;;;;;;12.50;11.20;;;;;;;12.97;100.00;101122.50;4922286;29;20451;-75
2023/08/30 03:36:17;;;;;;;12.07;10.73;;;;;;;13.51;100.00;101214.91;4922485;29;20520;-76
2023/08/30 03:38:43;;;;;;;14.37;10.80;;;;;;;13.28;100.00;101194.63;4921928;29;20519;-76
2023/08/30 03:41:10;;;;;;;14.37;12.27;;;;;;;13.27;100.00;101189.44;4924579;29;20467;-75
2023/08/30 03:43:36;;;;;;;14.17;10.93;;;;;;;13.25;100.00;101205.81;4921670;29;20992;-75
2023/08/30 03:46:02;;;;;;;12.97;11.60;;;;;;;13.53;100.00;101210.13;4920847;29;20527;-76
2023/08/30 03:48:29;;;;;;;12.50;10.77;;;;;;;13.36;100.00;101225.91;4923236;29;20230;-76
2023/08/30 03:50:55;;;;;;;15.97;12.53;;;;;;;12.72;100.00;101106.13;4921662;29;20483;-75
2023/08/30 03:53:22;;;;;;;13.83;11.83;;;;;;;12.80;100.00;101165.16;4922505;29;20452;-76
2023/08/30 03:55:48;;;;;;;14.30;11.23;;;;;;;12.26;100.00;101074.63;4923506;29;20435;-76
2023/08/30 03:58:14;;;;;;;13.23;10.30;;;;;;;12.52;100.00;101098.03;4923835;29;20440;-76
2023/08/30 04:00:39;;;;;;;12.53;11.20;;;;;;;12.74;100.00;101140.94;4922447;29;20207;-76
2023/08/30 04:03:08;;;;;;;12.93;11.17;;;;;;;13.11;100.00;101202.25;4924148;29;20253;-76
2023/08/30 04:05:34;;;;;;;14.67;12.57;;;;;;;13.00;100.00;101188.59;4921066;29;20236;-75
2023/08/30 04:08:02;;;;;;;12.67;10.87;;;;;;;12.16;100.00;101075.03;4921812;29;20451;-75
2023/08/30 04:10:27;;;;;;;14.30;10.10;;;;;;;12.84;100.00;101158.34;4923494;29;20207;-75
2023/08/30 04:12:52;;;;;;;15.37;11.80;;;;;;;13.00;100.00;101188.59;4922456;29;20494;-75
2023/08/30 04:15:18;;;;;;;13.23;11.83;;;;;;;12.87;100.00;101182.16;4925890;29;20204;-76
2023/08/30 04:17:43;;;;;;;13.57;11.60;;;;;;;13.00;100.00;101186.72;4923440;29;20222;-76
2023/08/30 04:20:10;;;;;;;12.73;11.07;;;;;;;12.69;100.00;101162.25;4922056;29;20698;-75
2023/08/30 04:22:36;;;;;;;14.20;10.87;;;;;;;12.84;100.00;101154.78;4922754;29;20181;-75
2023/08/30 04:25:02;;;;;;;13.03;11.63;;;;;;;12.91;100.00;101177.19;4928881;29;20455;-75
2023/08/30 04:27:28;;;;;;;13.23;10.60;;;;;;;13.04;100.00;101192.50;4922468;29;20440;-77
2023/08/30 04:29:53;;;;;;;13.17;9.37;;;;;;;12.98;100.00;101153.78;4923740;29;20443;-76
2023/08/30 04:32:19;;;;;;;9.80;8.80;;;;;;;13.30;100.00;101154.81;4927599;29;20188;-76
2023/08/30 04:34:44;;;;;;;10.70;9.37;;;;;;;12.51;100.00;101055.22;4923063;29;20195;-76
2023/08/30 04:37:10;;;;;;;10.10;8.97;;;;;;;12.66;100.00;101083.56;4927618;29;20227;-76
2023/08/30 04:39:35;;;;;;;10.83;9.50;;;;;;;12.52;100.00;101064.94;4923902;29;20243;-77
2023/08/30 04:42:02;;;;;;;10.67;9.57;;;;;;;12.29;100.00;101025.78;4921980;29;20354;-76
2023/08/30 04:44:28;;;;;;;12.03;10.40;;;;;;;13.27;100.00;101171.41;4925308;29;20219;-76
2023/08/30 04:46:54;;;;;;;11.57;9.40;;;;;;;12.87;100.00;101114.84;4925068;29;20460;-76
2023/08/30 04:49:19;;;;;;;9.20;8.20;;;;;;;12.57;100.00;101046.31;4931600;29;20714;-77
2023/08/30 04:51:45;;;;;;;9.83;8.83;;;;;;;13.09;100.00;101149.63;4925626;29;20452;-77
2023/08/30 04:54:10;;;;;;;11.30;9.30;;;;;;;12.17;100.00;101040.88;4926296;29;20200;-77
2023/08/30 04:56:36;;;;;;;11.87;10.30;;;;;;;12.64;100.00;101127.84;4924888;29;20219;-76
2023/08/30 04:59:03;;;;;;;11.60;8.77;;;;;;;12.54;100.00;101157.88;4924363;29;20215;-77
2023/08/30 05:01:29;;;;;;;11.00;8.47;;;;;;;11.72;100.00;101040.56;4925999;29;20214;-77
2023/08/30 05:03:55;;;;;;;10.63;9.00;;;;;;;12.40;100.00;101140.03;4924758;29;20432;-76
2023/08/30 05:06:20;;;;;;;11.73;9.33;;;;;;;12.22;100.00;101132.53;4925352;29;20925;-76
2023/08/30 05:08:46;;;;;;;11.77;9.57;;;;;;;12.41;100.00;101115.63;4923187;29;20184;-77
2023/08/30 05:11:11;;;;;;;13.03;9.03;;;;;;;12.40;100.00;101143.56;4932261;29;20605;-77
2023/08/30 05:13:37;;;;;;;10.03;9.00;;;;;;;12.43;100.00;101099.28;4925469;29;20204;-77
2023/08/30 05:16:03;;;;;;;11.10;9.90;;;;;;;12.21;100.00;101168.56;4926434;29;20207;-77
2023/08/30 05:18:28;;;;;;;10.77;9.10;;;;;;;11.82;100.00;101034.78;4923550;29;20264;-77
2023/08/30 05:20:54;;;;;;;10.70;9.10;;;;;;;12.69;100.00;101152.31;4926140;29;20443;-76
2023/08/30 05:23:19;;;;;;;11.50;9.20;;;;;;;11.68;100.00;101015.09;4924452;29;20219;-77
2023/08/30 05:25:44;;;;;;;10.93;9.33;;;;;;;12.06;100.00;101073.75;4924285;29;20250;-77
2023/08/30 05:28:10;;;;;;;11.93;9.50;;;;;;;11.89;100.00;101043.72;4939659;28;20180;-77
2023/08/30 05:30:35;;;;;;;12.43;9.03;;;;;;;12.32;100.00;101116.00;4925606;29;20212;-76
2023/08/30 05:33:01;;;;;;;11.50;9.47;;;;;;;12.36;100.00;101122.66;4926142;29;20213;-77
2023/08/30 05:35:26;;;;;;;10.60;9.50;;;;;;;12.29;100.00;101121.78;4925349;29;20276;-76
2023/08/30 05:37:51;;;;;;;10.53;8.93;;;;;;;11.58;100.00;100990.47;4922421;29;20218;-76
2023/08/30 05:40:17;;;;;;;11.93;9.27;;;;;;;12.49;100.00;101113.78;4922061;29;20204;-77
2023/08/30 05:42:45;;;;;;;9.63;8.67;;;;;;;12.04;100.00;101048.94;4924602;29;20188;-77
2023/08/30 05:45:10;;;;;;;11.70;9.70;;;;;;;11.95;100.00;101021.41;4924667;29;20459;-77
2023/08/30 05:47:35;;;;;;;11.60;9.73;;;;;;;11.89;100.00;101006.94;4929229;29;21013;-77
2023/08/30 05:50:01;;;;;;;12.03;9.60;;;;;;;12.10;100.00;101056.19;4924810;29;20284;-78
2023/08/30 05:52:26;;;;;;;11.83;9.80;;;;;;;12.53;100.00;101109.66;4938447;28;20677;-77
2023/08/30 05:54:52;;;;;;;10.23;8.60;;;;;;;12.66;100.00;101121.25;4925450;29;20211;-76
2023/08/30 05:57:17;;;;;;;12.80;9.10;;;;;;;11.91;100.00;100996.78;4925469;29;20254;-77
2023/08/30 05:59:43;;;;;;;9.23;8.00;;;;;;;12.61;100.00;101078.00;4929976;29;20614;-77
2023/08/30 06:02:08;;;;;;;11.30;8.93;;;;;;;12.75;100.00;101116.47;4925521;29;20206;-76
2023/08/30 06:04:34;;;;;;;15.23;9.80;;;;;;;12.08;100.00;100999.91;4924261;29;20242;-77
2023/08/30 06:06:59;;;;;;;11.47;9.00;;;;;;;12.78;100.00;101097.22;4924602;29;20181;-78
2023/08/30 06:09:25;;;;;;;10.33;9.03;;;;;;;12.03;100.00;100991.63;4924746;29;20192;-77
2023/08/30 06:11:50;;;;;;;11.47;8.80;;;;;;;12.76;100.00;101082.34;4924042;29;20226;-77
2023/08/30 06:14:16;;;;;;;10.80;9.40;;;;;;;12.84;100.00;101060.56;4930096;29;20187;-77
2023/08/30 06:16:44;;;;;;;10.47;8.60;;;;;;;12.76;100.00;101068.91;4923834;29;20219;-78
2023/08/30 06:19:10;;;;;;;11.40;9.00;;;;;;;12.91;100.00;101085.66;4922233;29;20194;-77
2023/08/30 06:21:36;;;;;;;9.63;8.10;;;;;;;12.93;100.00;101066.56;4924785;29;20980;-77
2023/08/30 06:24:02;;;;;;;12.80;9.93;;;;;;;12.88;100.00;101053.75;4923112;29;20432;-78
2023/08/30 06:26:27;;;;;;;10.77;9.63;;;;;;;12.68;100.00;101051.06;4925219;29;20693;-78
2023/08/30 06:28:52;;;;;;;12.70;10.30;;;;;;;12.15;100.00;100949.69;4923636;29;20223;-78
2023/08/30 06:31:18;;;;;;;10.20;9.10;;;;;;;12.99;100.00;101050.44;4922953;29;20218;-77
2023/08/30 06:33:44;;;;;;;10.50;9.30;;;;;;;12.94;100.00;101050.22;4923138;29;20243;-77
2023/08/30 06:36:11;;;;;;;11.80;10.17;;;;;;;12.26;100.00;100931.25;4924261;29;21218;-77
2023/08/30 06:38:37;;;;;;;11.00;8.80;;;;;;;12.99;100.00;101011.88;4920352;29;21190;-77
2023/08/30 06:41:02;;;;;;;10.80;9.70;;;;;;;12.95;100.00;101029.50;4922847;29;20452;-78
2023/08/30 06:43:28;;;;;;;10.60;9.50;;;;;;;12.41;100.00;100948.84;4922783;29;20194;-78
2023/08/30 06:45:53;;;;;;;9.93;8.40;;;;;;;12.31;100.00;100883.06;4923682;29;20220;-77
2023/08/30 06:48:19;;;;;;;11.50;9.20;;;;;;;13.48;100.00;101048.25;4923858;29;20187;-77
2023/08/30 06:50:44;;;;;;;9.63;8.60;;;;;;;13.09;100.00;100971.91;4924066;29;20226;-77
2023/08/30 06:53:10;;;;;;;9.97;8.00;;;;;;;13.18;100.00;100943.69;4923212;29;20596;-78
2023/08/30 06:55:36;;;;;;;9.90;8.30;;;;;;;12.98;100.00;100935.69;4923672;29;20658;-77
2023/08/30 06:58:02;;;;;;;9.43;7.90;;;;;;;13.37;100.00;100993.19;4925015;29;20234;-79
2023/08/30 07:00:28;;;;;;;9.53;7.93;;;;;;;13.16;100.00;100942.25;4928103;29;20975;-77
2023/08/30 07:02:53;;;;;;;12.47;8.43;;;;;;;12.85;100.00;100893.47;4920109;29;20504;-77
2023/08/30 07:05:19;;;;;;;9.17;8.13;;;;;;;13.06;100.00;100905.00;4922356;29;20190;-77
2023/08/30 07:07:44;;;;;;;9.60;7.97;;;;;;;13.65;100.00;100994.69;4924081;29;20774;-77
2023/08/30 07:10:10;;;;;;;10.70;8.00;;;;;;;13.26;100.00;100921.13;4924239;29;20204;-77
2023/08/30 07:12:35;;;;;;;11.83;8.23;;;;;;;13.83;100.00;101016.41;4922320;29;20181;-77
2023/08/30 07:15:03;;;;;;;12.13;7.90;;;;;;;13.38;100.00;100899.72;4924167;29;20276;-77
2023/08/30 07:17:28;;;;;;;11.80;9.07;;;;;;;13.64;100.00;100963.41;4923778;29;20240;-77
2023/08/30 07:19:53;;;;;;;10.43;8.27;;;;;;;13.87;100.00;100976.34;4923560;29;20903;-78
2023/08/30 07:22:19;;;;;;;13.70;8.63;;;;;;;13.30;100.00;100885.44;4923481;29;20184;-78
2023/08/30 07:24:45;;;;;;;10.83;7.50;;;;;;;14.07;100.00;101009.41;4920381;29;20175;-77
2023/08/30 07:27:12;;;;;;;9.60;8.27;;;;;;;13.76;100.00;100953.59;4921060;29;20432;-77
2023/08/30 07:29:40;;;;;;;13.63;9.37;;;;;;;13.23;100.00;100870.34;4921237;29;20195;-77
2023/08/30 07:32:05;;;;;;;15.33;9.30;;;;;;;13.05;100.00;100818.03;4924190;29;20952;-77
2023/08/30 07:34:31;;;;;;;12.70;8.93;;;;;;;13.88;100.00;100929.44;4937216;28;20472;-77
2023/08/30 07:36:56;;;;;;;11.13;9.10;;;;;;;14.17;100.00;100979.22;4921758;29;20661;-77
2023/08/30 07:39:22;;;;;;;9.87;8.10;;;;;;;14.17;100.00;100955.78;4922185;29;20187;-77
2023/08/30 07:41:47;;;;;;;12.37;8.80;;;;;;;13.64;100.00;100866.38;4924166;29;20208;-77
2023/08/30 07:44:13;;;;;;;13.53;10.23;;;;;;;13.49;100.00;100851.34;4921864;29;20246;-78
2023/08/30 07:46:38;;;;;;;11.60;9.30;;;;;;;14.08;100.00;100926.59;4923492;29;20653;-77
2023/08/30 07:49:03;;;;;;;12.97;10.50;;;;;;;13.86;100.00;100894.63;4921508;29;20195;-77
2023/08/30 07:51:29;;;;;;;11.60;9.30;;;;;;;14.18;100.00;100891.88;4921099;29;20227;-77
2023/08/30 07:53:54;;;;;;;13.57;9.63;;;;;;;13.94;100.00;100864.69;4923032;29;20191;-76
2023/08/30 07:56:20;;;;;;;13.37;9.73;;;;;;;13.69;100.00;100804.56;4919628;29;20204;-76
2023/08/30 07:58:45;;;;;;;15.80;11.20;;;;;;;13.50;100.00;100763.25;4922729;29;20224;-77
2023/08/30 08:01:10;;;;;;;12.70;9.17;;;;;;;13.69;100.00;100754.16;4922731;29;20302;-76
2023/08/30 08:03:36;;;;;;;13.33;10.00;;;;;;;14.62;100.00;100914.31;4922725;29;20177;-76
2023/08/30 08:06:01;;;;;;;12.50;9.23;;;;;;;14.56;100.00;100897.13;4926726;29;20193;-76
2023/08/30 08:08:27;;;;;;;12.83;9.03;;;;;;;14.54;100.00;100863.31;4928242;29;20211;-76
2023/08/30 08:10:52;;;;;;;13.07;8.37;;;;;;;14.02;100.00;100782.69;4925453;29;20215;-77
2023/08/30 08:13:18;;;;;;;12.10;9.80;;;;;;;13.86;100.00;100751.72;4926390;28;20187;-76
2023/08/30 08:15:44;;;;;;;13.47;9.60;;;;;;;13.97;100.00;100775.28;4932515;29;20176;-76
2023/08/30 08:18:10;;;;;;;12.70;9.53;;;;;;;14.07;100.00;100796.31;4924121;29;20236;-76
2023/08/30 08:20:36;;;;;;;10.50;8.30;;;;;;;13.99;100.00;100777.72;4924620;29;20452;-76
2023/08/30 08:23:02;;;;;;;12.77;10.27;;;;;;;14.37;100.00;100849.56;4924266;29;20500;-76
2023/08/30 08:25:28;;;;;;;12.03;9.07;;;;;;;14.39;100.00;100825.88;4925396;29;20443;-76
2023/08/30 08:27:54;;;;;;;12.83;9.50;;;;;;;14.81;100.00;100872.78;4926489;29;21248;-75
2023/08/30 08:30:20;;;;;;;12.80;10.00;;;;;;;13.65;100.00;100696.34;4925501;29;20231;-75
2023/08/30 08:32:49;;;;;;;11.03;9.00;;;;;;;14.77;100.00;100857.25;4926382;29;20216;-76
2023/08/30 08:35:15;;;;;;;10.87;8.20;;;;;;;14.66;100.00;100824.53;4924145;29;20488;-76
2023/08/30 08:37:40;;;;;;;13.80;9.23;;;;;;;14.47;100.00;100785.09;4924805;29;20460;-75
2023/08/30 08:40:08;;;;;;;12.60;9.80;;;;;;;14.20;100.00;100761.13;4924046;29;20204;-76
2023/08/30 08:42:35;;;;;;;14.70;10.40;;;;;;;14.66;100.00;100846.13;4921237;29;20573;-76
2023/08/30 08:45:03;;;;;;;13.40;9.30;;;;;;;14.45;100.00;100815.00;4921916;29;20857;-75
2023/08/30 08:47:30;;;;;;;14.83;11.03;;;;;;;14.56;100.00;100840.47;4922515;29;20782;-76
2023/08/30 08:49:56;;;;;;;13.37;9.20;;;;;;;14.79;100.00;100874.06;4938977;28;20456;-75
2023/08/30 08:52:23;;;;;;;9.80;8.07;;;;;;;14.15;100.00;100746.66;4921159;29;20913;-77
2023/08/30 08:54:49;;;;;;;12.30;9.70;;;;;;;14.76;100.00;100828.59;4923496;29;20436;-76
2023/08/30 08:57:15;;;;;;;13.40;9.83;;;;;;;14.19;100.00;100764.03;4923661;29;20967;-76
2023/08/30 08:59:40;;;;;;;16.13;10.27;;;;;;;14.67;100.00;100830.78;4937442;28;20189;-76
2023/08/30 09:02:06;;;;;;;12.20;9.00;;;;;;;14.22;100.00;100731.22;4926780;29;20598;-76
2023/08/30 09:04:32;;;;;;;11.53;8.50;;;;;;;14.77;100.00;100827.53;4922084;29;20183;-76
2023/08/30 09:06:58;;;;;;;10.83;8.87;;;;;;;14.69;100.00;100816.03;4924214;29;20808;-76
2023/08/30 09:09:25;;;;;;;12.83;9.53;;;;;;;14.81;100.00;100848.47;4923101;29;20626;-76
2023/08/30 09:11:50;;;;;;;12.30;9.60;;;;;;;14.35;100.00;100774.25;4920622;29;20447;-76
2023/08/30 09:14:16;;;;;;;12.90;8.73;;;;;;;14.82;100.00;100833.09;4924253;29;20777;-76
2023/08/30 09:16:41;;;;;;;14.00;10.17;;;;;;;14.46;100.00;100770.78;4923772;29;20232;-76
2023/08/30 09:19:07;;;;;;;12.30;8.67;;;;;;;14.11;100.00;100705.00;4920402;29;20184;-76
2023/08/30 09:21:33;;;;;;;11.93;9.37;;;;;;;14.04;100.00;100707.78;4920432;29;20577;-75
2023/08/30 09:23:58;;;;;;;13.07;10.10;;;;;;;14.89;100.00;100823.84;4921842;29;20516;-76
2023/08/30 09:26:24;;;;;;;11.50;8.70;;;;;;;14.19;100.00;100696.59;4921239;29;20175;-76
2023/08/30 09:28:50;;;;;;;12.87;9.47;;;;;;;14.50;100.00;100759.53;4923313;29;20220;-76
2023/08/30 09:31:21;;;;;;;14.60;10.37;;;;;;;14.21;100.00;100695.34;4924409;29;20995;-75
2023/08/30 09:33:50;;;;;;;12.33;9.70;;;;;;;14.21;100.00;100675.63;4925003;29;20687;-76
2023/08/30 09:36:15;;;;;;;12.43;9.80;;;;;;;14.04;100.00;100644.94;4922794;29;20992;-76
2023/08/30 09:38:47;;;;;;;11.00;9.07;;;;;;;15.01;100.00;100752.84;4922878;29;20436;-76
2023/08/30 09:41:13;;;;;;;13.53;9.70;;;;;;;14.44;100.00;100691.09;4924965;29;20231;-75
2023/08/30 09:43:43;;;;;;;11.33;8.80;;;;;;;14.36;100.00;100667.94;4922501;29;20908;-75
2023/08/30 09:46:08;;;;;;;14.13;10.83;;;;;;;15.18;100.00;100807.06;4917413;29;20235;-75
2023/08/30 09:48:34;;;;;;;12.57;10.10;;;;;;;14.95;100.00;100741.09;4923409;29;20424;-76
2023/08/30 09:51:03;;;;;;;13.90;10.73;;;;;;;14.67;100.00;100672.34;4922522;29;20266;-76
2023/08/30 09:53:33;;;;;;;14.13;11.47;;;;;;;15.09;100.00;100736.31;4921886;29;20199;-76
2023/08/30 09:55:59;;;;;;;14.43;10.83;;;;;;;15.35;100.00;100735.91;4920276;29;20479;-76
2023/08/30 09:58:27;;;;;;;14.50;10.77;;;;;;;14.69;100.00;100627.03;4923136;29;20440;-76
2023/08/30 10:00:53;;;;;;;20.40;12.17;;;;;;;15.45;100.00;100756.97;4924629;29;20862;-76
2023/08/30 10:03:19;;;;;;;15.17;11.23;;;;;;;15.44;100.00;100733.66;4921235;29;20467;-76
2023/08/30 10:05:45;;;;;;;17.57;11.93;;;;;;;15.64;100.00;100746.84;4922697;29;20183;-76
2023/08/30 10:08:12;;;;;;;20.73;12.33;;;;;;;15.06;100.00;100647.66;4924580;29;20187;-76
2023/08/30 10:10:39;;;;;;;16.33;12.57;;;;;;;15.70;100.00;100709.97;4922929;29;21228;-76
2023/08/30 10:13:05;;;;;;;14.60;12.30;;;;;;;15.45;100.00;100659.66;4923676;29;20459;-76
2023/08/30 10:15:35;;;;;;;17.70;11.77;;;;;;;15.28;100.00;100600.09;4920889;29;20429;-76
2023/08/30 10:18:02;;;;;;;15.90;11.43;;;;;;;15.53;100.00;100597.09;4922381;29;20464;-76
2023/08/30 10:20:28;;;;;;;18.43;12.60;;;;;;;15.84;100.00;100667.28;4920858;29;20472;-76
2023/08/30 10:22:56;;;;;;;15.00;11.27;;;;;;;15.71;100.00;100609.72;4922702;29;20467;-76
2023/08/30 10:25:26;;;;;;;15.13;10.53;;;;;;;16.20;100.00;100653.44;4937605;28;20660;-75
2023/08/30 10:27:53;;;;;;;16.37;10.87;;;;;;;15.26;100.00;100498.69;4920223;29;20452;-75
2023/08/30 10:30:21;;;;;;;13.37;10.50;;;;;;;16.21;100.00;100663.19;4920299;29;20448;-76
2023/08/30 10:32:46;;;;;;;11.97;9.37;;;;;;;16.11;100.00;100644.03;4922371;29;20432;-76
2023/08/30 10:35:13;;;;;;;16.27;10.80;;;;;;;16.14;100.00;100649.00;4924001;29;20480;-76
2023/08/30 10:37:39;;;;;;;14.93;10.70;;;;;;;16.11;100.00;100659.44;4928940;29;20204;-76
2023/08/30 10:40:05;;;;;;;18.07;10.47;;;;;;;15.45;100.00;100534.47;4928430;29;20456;-76
2023/08/30 10:42:32;;;;;;;12.70;8.83;;;;;;;15.83;100.00;100577.22;4922143;29;20436;-76
2023/08/30 10:45:05;;;;;;;16.13;9.43;;;;;;;16.12;100.00;100631.34;4922048;29;20432;-76
2023/08/30 10:47:32;;;;;;;11.07;8.43;;;;;;;16.17;100.00;100616.03;4921212;29;20905;-76
2023/08/30 10:50:00;;;;;;;14.07;10.13;;;;;;;16.00;100.00;100612.47;4927916;29;20985;-77
2023/08/30 10:52:28;;;;;;;11.47;8.23;;;;;;;15.68;100.00;100560.66;4928048;29;20437;-76
2023/08/30 10:55:08;;;;;;;11.73;8.27;;;;;;;15.60;100.00;100549.16;4918715;29;20785;-76
2023/08/30 10:57:33;;;;;;;11.63;7.40;;;;;;;15.62;100.00;100553.50;4921445;29;20469;-76
2023/08/30 11:00:18;;;;;;;11.23;7.70;;;;;;;15.25;100.00;100491.66;4919919;29;20460;-76
2023/08/30 11:02:50;;;;;;;11.10;7.23;;;;;;;15.86;100.00;100581.34;4922396;29;20192;-76
2023/08/30 11:05:19;;;;;;;9.80;6.43;;;;;;;15.96;100.00;100592.34;4919255;29;20523;-76